Flight Track Log - Related Links

Times and Time Zones

All times are in EDT time to prevent confusion due to time zone crossing. See the N885WT flight status page for this flight to view local times or setup timezone preferences in your user account.

Time Position Orientation Groundspeed Altitude Reporting Facility
EDT Latitude Longitude Course Direction KTS MPH feet Rate Location/Type
Mon 06:42:43 PM 40.7500 -74.4333 270° West 210 242 2,000  Level New York TRACON
Mon 06:43:43 PM 40.7000 -74.4167 166° South 262 302 2,200 1,650 Climbing New York TRACON
Mon 06:44:43 PM 40.7500 -74.3333 52° Northeast 254 292 5,300 3,750 Climbing New York TRACON
Mon 06:45:43 PM 40.8000 -74.3667 333° Northwest 266 306 9,700 3,262 Climbing New York TRACON
Mon 06:48:00 PM 40.7500 -75.3740 270° West  Level FlightAware Approximate
Mon 06:48:09 PM 40.8008 -74.6225 270° West 338 389 16,500  Level New York Center
Mon 06:49:06 PM 40.8025 -74.7597 271° West 345 397 17,600 1,881 Climbing New York Center
Mon 06:50:07 PM 40.8028 -74.8775 270° West 345 397 20,200 2,754 Climbing New York Center
Mon 06:51:08 PM 40.7981 -75.0117 267° West 356 410 23,200 2,847 Climbing New York Center
Mon 06:52:05 PM 40.7619 -75.1408 250° West 366 421 25,800 2,441 Climbing New York Center
Mon 06:53:06 PM 40.7217 -75.2725 248° West 377 434 28,000 2,033 Climbing New York Center
Mon 06:54:06 PM 40.6808 -75.4122 249° West 395 455 29,900 1,736 Climbing New York Center
Mon 06:55:07 PM 40.6353 -75.5594 248° West 416 479 31,500 1,475 Climbing New York Center
Mon 06:56:08 PM 40.5894 -75.7147 249° West 443 510 32,900 1,831 Climbing New York Center
Mon 06:57:05 PM 40.5408 -75.8725 248° West 453 521 35,100 2,118 Climbing New York Center
Mon 06:58:07 PM 40.4886 -76.0214 245° Southwest 464 534 37,100 1,561 Climbing New York Center
Mon 06:59:08 PM 40.4419 -76.1789 249° West 464 534 38,300 1,271 Climbing New York Center
Mon 07:00:05 PM 40.3928 -76.3358 248° West 464 534 39,600 1,119 Climbing New York Center
Mon 07:01:06 PM 40.3417 -76.4922 247° West 464 534 40,500 1,140 Climbing New York Center
Mon 07:02:06 PM 40.2967 -76.6464 249° West 469 540 41,900 1,240 Climbing New York Center
Mon 07:03:07 PM 40.2947 -76.8069 269° West 450 518 43,000 541 Climbing New York Center
Mon 07:04:08 PM 40.2944 -76.9703 270° West 450 518 43,000  Level New York Center
Mon 07:05:05 PM 40.2942 -77.1364 270° West 450 518 43,000  Level New York Center
Mon 07:07:09 PM 40.2894 -77.4772 269° West 480 552 43,000  Level Cleveland Center
Mon 07:08:09 PM 40.2894 -77.6297 270° West 458 527 43,000  Level Cleveland Center
Mon 07:09:09 PM 40.2872 -77.7931 269° West 448 516 43,000  Level Cleveland Center
Mon 07:10:09 PM 40.2828 -77.9567 268° West 448 516 43,000  Level Cleveland Center
Mon 07:11:09 PM 40.2803 -78.1256 269° West 458 527 43,000  Level Cleveland Center
Mon 07:12:09 PM 40.2756 -78.2889 268° West 458 527 43,000  Level Cleveland Center
Mon 07:13:09 PM 40.2725 -78.4525 269° West 458 527 43,000  Level Cleveland Center
Mon 07:14:09 PM 40.2692 -78.6186 269° West 458 527 43,000  Level Cleveland Center
Mon 07:15:09 PM 40.2656 -78.7819 268° West 458 527 43,000  Level Cleveland Center
Mon 07:16:09 PM 40.2617 -78.9453 268° West 458 527 43,000  Level Cleveland Center
Mon 07:17:09 PM 40.2556 -79.1086 267° West 458 527 43,000  Level Cleveland Center
Mon 07:18:09 PM 40.2536 -79.2744 269° West 458 527 43,000  Level Cleveland Center
Mon 07:19:09 PM 40.2514 -79.4542 269° West 458 527 43,000  Level Cleveland Center
Mon 07:20:09 PM 40.2464 -79.6119 268° West 452 520 43,000  Level Cleveland Center
Mon 07:21:09 PM 40.2414 -79.7753 268° West 452 520 43,000  Level Cleveland Center
Mon 07:22:09 PM 40.2364 -79.9386 268° West 452 520 43,000  Level Cleveland Center
Mon 07:23:09 PM 40.2286 -80.0992 266° West 446 513 43,000  Level Cleveland Center
Mon 07:24:09 PM 40.2231 -80.2458 267° West 456 525 43,000  Level Cleveland Center
Mon 07:25:09 PM 40.2214 -80.4092 269° West 462 532 43,000  Level Cleveland Center
Mon 07:26:09 PM 40.2131 -80.5722 266° West 457 526 43,000  Level Cleveland Center
Mon 07:27:09 PM 40.2067 -80.7381 267° West 462 532 43,000  Level Cleveland Center
Mon 07:28:09 PM 40.2000 -80.9011 267° West 462 532 43,000  Level Cleveland Center
Mon 07:29:50 PM 40.1858 -81.1792 266° West 449 517 43,000  Level Indianapolis Center
Mon 07:30:52 PM 40.1778 -81.3442 266° West 450 518 43,000  Level Indianapolis Center
Mon 07:31:54 PM 40.1706 -81.5100 267° West 451 519 43,000  Level Indianapolis Center
Mon 07:32:56 PM 40.1628 -81.6783 267° West 458 527 43,000  Level Indianapolis Center
Mon 07:33:58 PM 40.1542 -81.8608 267° West 452 520 43,000  Level Indianapolis Center
Mon 07:35:00 PM 40.1444 -82.0231 266° West 447 514 43,000  Level Indianapolis Center
Mon 07:36:02 PM 40.1369 -82.1872 267° West 450 518 43,000  Level Indianapolis Center
Mon 07:37:03 PM 40.1292 -82.3556 267° West 459 528 43,000  Level Indianapolis Center
Mon 07:38:05 PM 40.1189 -82.5200 265° West 454 522 43,000  Level Indianapolis Center
Mon 07:39:07 PM 40.1086 -82.7136 266° West 454 522 43,000  Level Indianapolis Center
Mon 07:40:09 PM 40.0981 -82.8778 265° West 452 520 43,000  Level Indianapolis Center
Mon 07:41:11 PM 40.0889 -83.0400 266° West 447 514 43,000  Level Indianapolis Center
Mon 07:42:12 PM 40.0786 -83.2025 265° West 448 516 43,000  Level Indianapolis Center
Mon 07:43:14 PM 40.0686 -83.3628 265° West 444 511 43,000  Level Indianapolis Center
Mon 07:44:16 PM 40.0586 -83.5239 265° West 448 516 43,000  Level Indianapolis Center
Mon 07:45:18 PM 40.0478 -83.6861 265° West 451 519 43,000  Level Indianapolis Center
Mon 07:46:19 PM 40.0361 -83.8764 265° West 450 518 43,000  Level Indianapolis Center
Mon 07:47:21 PM 40.0250 -84.0378 265° West 446 513 43,000  Level Indianapolis Center
Mon 07:48:23 PM 40.0142 -84.2003 265° West 449 517 43,000  Level Indianapolis Center
Mon 07:49:24 PM 40.0011 -84.3628 264° West 448 516 43,000  Level Indianapolis Center
Mon 07:50:26 PM 39.9883 -84.5261 264° West 450 518 43,000  Level Indianapolis Center
Mon 07:51:27 PM 39.9769 -84.6892 265° West 449 517 43,000  Level Indianapolis Center
Mon 07:52:29 PM 39.9642 -84.8517 264° West 447 514 43,000  Level Indianapolis Center
Mon 07:53:31 PM 39.9514 -85.0267 265° West 445 512 43,000  Level Indianapolis Center
Mon 07:54:32 PM 39.9386 -85.1858 264° West 443 510 43,000  Level Indianapolis Center
Mon 07:55:34 PM 39.9267 -85.3475 265° West 449 517 43,000  Level Indianapolis Center
Mon 07:56:35 PM 39.9133 -85.5089 264° West 452 520 43,000  Level Indianapolis Center
Mon 07:57:37 PM 39.8992 -85.6686 263° West 447 514 43,000  Level Indianapolis Center
Mon 07:58:39 PM 39.8839 -85.8631 264° West 453 521 43,000  Level Indianapolis Center
Mon 07:59:40 PM 39.8694 -86.0253 263° West 455 524 43,000  Level Indianapolis Center
Mon 08:00:42 PM 39.8564 -86.1844 264° West 451 519 43,000  Level Indianapolis Center
Mon 08:01:43 PM 39.8392 -86.3617 263° West 448 516 43,000  Level Indianapolis Center
Mon 08:02:45 PM 39.8253 -86.5314 264° West 454 522 43,000  Level Indianapolis Center
Mon 08:03:47 PM 39.8100 -86.6933 263° West 456 525 43,000  Level Indianapolis Center
Mon 08:04:48 PM 39.7953 -86.8572 263° West 458 527 43,000  Level Indianapolis Center
Mon 08:05:50 PM 39.7789 -87.0200 263° West 458 527 43,000  Level Indianapolis Center
Mon 08:06:51 PM 39.7642 -87.1833 263° West 458 527 43,000  Level Indianapolis Center
Mon 08:07:53 PM 39.7486 -87.3450 263° West 455 524 43,000  Level Indianapolis Center
Mon 08:08:54 PM 39.7328 -87.5075 263° West 455 524 43,000  Level Indianapolis Center
Mon 08:09:56 PM 39.7108 -87.7008 262° West 455 524 43,000  Level Indianapolis Center
Mon 08:10:57 PM 39.6961 -87.8625 263° West 452 520 43,000  Level Indianapolis Center
Mon 08:11:59 PM 39.6794 -88.0269 263° West 459 528 43,000  Level Indianapolis Center
Mon 08:12:38 PM 39.6686 -88.1297 262° West 456 525 43,000  Level Kansas City Center
Mon 08:13:40 PM 39.6511 -88.2928 262° West 459 528 43,000  Level Kansas City Center
Mon 08:14:42 PM 39.6317 -88.4592 261° West 459 528 43,000  Level Kansas City Center
Mon 08:15:44 PM 39.6139 -88.6225 262° West 461 531 43,000  Level Kansas City Center
Mon 08:16:45 PM 39.5928 -88.8219 262° West 464 534 43,000  Level Kansas City Center
Mon 08:17:47 PM 39.5736 -88.9886 262° West 466 536 43,000  Level Kansas City Center
Mon 08:18:49 PM 39.5550 -89.1564 262° West 468 539 43,000  Level Kansas City Center
Mon 08:19:51 PM 39.5378 -89.3072 262° West 468 539 43,000  Level Kansas City Center
Mon 08:20:53 PM 39.5144 -89.5047 261° West 466 536 43,000  Level Kansas City Center
Mon 08:21:55 PM 39.4947 -89.6697 261° West 466 536 43,000  Level Kansas City Center
Mon 08:22:56 PM 39.4747 -89.8367 261° West 470 541 43,000  Level Kansas City Center
Mon 08:23:58 PM 39.4547 -90.0022 261° West 470 541 43,000  Level Kansas City Center
Mon 08:25:00 PM 39.4342 -90.1694 261° West 472 543 43,000  Level Kansas City Center
Mon 08:26:02 PM 39.4147 -90.3375 262° West 474 545 43,000  Level Kansas City Center
Mon 08:27:04 PM 39.3897 -90.5361 261° West 473 544 43,000  Level Kansas City Center
Mon 08:28:06 PM 39.3686 -90.7017 261° West 471 542 43,000  Level Kansas City Center
Mon 08:29:07 PM 39.3467 -90.8667 260° West 471 542 43,000  Level Kansas City Center
Mon 08:30:09 PM 39.3253 -91.0319 261° West 470 541 43,000  Level Kansas City Center
Mon 08:31:11 PM 39.3036 -91.1961 260° West 468 539 43,000  Level Kansas City Center
Mon 08:32:13 PM 39.2764 -91.3944 260° West 469 540 43,000  Level Kansas City Center
Mon 08:33:15 PM 39.2550 -91.5608 261° West 471 542 43,000  Level Kansas City Center
Mon 08:34:17 PM 39.2353 -91.7133 261° West 471 542 43,000  Level Kansas City Center
Mon 08:35:19 PM 39.2069 -91.9128 260° West 471 542 43,000  Level Kansas City Center
Mon 08:36:20 PM 39.1842 -92.0769 260° West 469 540 43,000  Level Kansas City Center
Mon 08:37:22 PM 39.1597 -92.2419 259° West 468 539 43,000  Level Kansas City Center
Mon 08:38:24 PM 39.1361 -92.4075 260° West 470 541 43,000  Level Kansas City Center
Mon 08:39:26 PM 39.1114 -92.5733 259° West 472 543 43,000  Level Kansas City Center
Mon 08:40:28 PM 39.0869 -92.7411 259° West 472 543 43,000  Level Kansas City Center
Mon 08:41:30 PM 39.0614 -92.9103 259° West 476 548 43,000  Level Kansas City Center
Mon 08:42:31 PM 39.0367 -93.0792 259° West 480 552 43,000  Level Kansas City Center
Mon 08:43:33 PM 39.0069 -93.2811 259° West 482 555 43,000  Level Kansas City Center
Mon 08:44:35 PM 38.9808 -93.4456 259° West 478 550 43,000  Level Kansas City Center
Mon 08:45:37 PM 38.9547 -93.6167 259° West 483 556 43,000  Level Kansas City Center
Mon 08:46:39 PM 38.9272 -93.8014 259° West 479 551 43,000  Level Kansas City Center
Mon 08:47:40 PM 38.9017 -93.9614 258° West 476 548 43,000  Level Kansas City Center
Mon 08:48:42 PM 38.8761 -94.1244 259° West 484 557 43,000  Level Kansas City Center
Mon 08:49:44 PM 38.8458 -94.3117 258° West 480 552 43,000  Level Kansas City Center
Mon 08:50:46 PM 38.8189 -94.4753 258° West 486 559 43,000  Level Kansas City Center
Mon 08:51:48 PM 38.7869 -94.6647 258° West 485 558 43,000  Level Kansas City Center
Mon 08:52:49 PM 38.7606 -94.8283 258° West 488 562 43,000  Level Kansas City Center
Mon 08:53:51 PM 38.7275 -95.0197 258° West 489 563 43,000  Level Kansas City Center
Mon 08:54:53 PM 38.6997 -95.1833 258° West 490 564 43,000  Level Kansas City Center
Mon 08:55:55 PM 38.6725 -95.3458 258° West 487 560 43,000  Level Kansas City Center
Mon 08:56:56 PM 38.6408 -95.5386 258° West 493 567 43,000  Level Kansas City Center
Mon 08:57:58 PM 38.6125 -95.7000 257° West 487 560 43,000  Level Kansas City Center
Mon 08:59:00 PM 38.5811 -95.8903 258° West 488 562 43,000  Level Kansas City Center
Mon 09:00:01 PM 38.5517 -96.0528 257° West 489 563 43,000  Level Kansas City Center
Mon 09:01:03 PM 38.5228 -96.2128 257° West 486 559 43,000  Level Kansas City Center
Mon 09:02:05 PM 38.4881 -96.4031 257° West 490 564 43,000  Level Kansas City Center
Mon 09:03:07 PM 38.4569 -96.5781 257° West 490 564 43,000  Level Kansas City Center
Mon 09:04:08 PM 38.4258 -96.7489 257° West 495 570 43,000  Level Kansas City Center
Mon 09:05:10 PM 38.3944 -96.9192 257° West 495 570 43,000  Level Kansas City Center
Mon 09:06:11 PM 38.3628 -97.0889 257° West 494 568 43,000  Level Kansas City Center
Mon 09:07:13 PM 38.3311 -97.2586 257° West 494 568 43,000  Level Kansas City Center
Mon 09:08:15 PM 38.2986 -97.4272 256° West 493 567 43,000  Level Kansas City Center
Mon 09:09:16 PM 38.2672 -97.5944 257° West 490 564 43,000  Level Kansas City Center
Mon 09:10:18 PM 38.2278 -97.7964 256° West 495 570 43,000  Level Kansas City Center
Mon 09:11:20 PM 38.1964 -97.9644 257° West 496 571 43,000  Level Kansas City Center
Mon 09:12:21 PM 38.1628 -98.1325 256° West 497 572 43,000  Level Kansas City Center
Mon 09:13:23 PM 38.1297 -98.3019 256° West 499 574 43,000  Level Kansas City Center
Mon 09:14:24 PM 38.0961 -98.4706 256° West 497 572 43,000  Level Kansas City Center
Mon 09:15:26 PM 38.0547 -98.6725 255° West 495 570 43,000  Level Kansas City Center
Mon 09:16:28 PM 38.0197 -98.8417 255° West 497 572 43,000  Level Kansas City Center
Mon 09:17:29 PM 37.9847 -99.0119 255° West 499 574 43,000  Level Kansas City Center
Mon 09:18:31 PM 37.9500 -99.1803 255° West 496 571 43,000  Level Kansas City Center
Mon 09:19:32 PM 37.9156 -99.3492 256° West 496 571 43,000  Level Kansas City Center
Mon 09:20:34 PM 37.8761 -99.5394 255° West 497 572 43,000  Level Kansas City Center
Mon 09:21:35 PM 37.8414 -99.7003 255° West 495 570 43,000  Level Kansas City Center
Mon 09:22:37 PM 37.8003 -99.8906 255° West 501 577 43,000  Level Kansas City Center
Mon 09:23:39 PM 37.7653 -100.0519 255° West 499 574 43,000  Level Kansas City Center
Mon 09:24:40 PM 37.7297 -100.2128 254° West 498 573 43,000  Level Kansas City Center
Mon 09:25:42 PM 37.6892 -100.4017 255° West 498 573 43,000  Level Kansas City Center
Mon 09:26:43 PM 37.6497 -100.5825 255° West 500 575 43,000  Level Kansas City Center
Mon 09:27:45 PM 37.6122 -100.7486 254° West 495 570 43,000  Level Kansas City Center
Mon 09:28:46 PM 37.5722 -100.9225 254° West 505 581 43,000  Level Kansas City Center
Mon 09:29:48 PM 37.5347 -101.0917 254° West 506 582 43,000  Level Kansas City Center
Mon 09:30:49 PM 37.4933 -101.2764 254° West 499 574 43,000  Level Kansas City Center
Mon 09:31:51 PM 37.4567 -101.4383 254° West 501 577 43,000  Level Kansas City Center
Mon 09:32:52 PM 37.4194 -101.6008 254° West 504 580 43,000  Level Kansas City Center
Mon 09:33:54 PM 37.3764 -101.7900 254° West 504 580 43,000  Level Kansas City Center
Mon 09:34:55 PM 37.3389 -101.9503 254° West 502 578 43,000  Level Kansas City Center
Mon 09:35:20 PM 37.3194 -102.0317 253° West 504 580 43,000  Level Albuquerque Center
Mon 09:36:22 PM 37.2819 -102.1958 254° West 504 580 43,000  Level Albuquerque Center
Mon 09:37:23 PM 37.2361 -102.3856 253° West 508 585 43,000  Level Albuquerque Center
Mon 09:38:25 PM 37.1981 -102.5475 254° West 506 582 43,000  Level Albuquerque Center
Mon 09:39:26 PM 37.1589 -102.7075 253° West 502 578 43,000  Level Albuquerque Center
Mon 09:40:27 PM 37.1131 -102.8958 253° West 504 580 43,000  Level Albuquerque Center
Mon 09:41:29 PM 37.0747 -103.0575 253° West 506 582 43,000  Level Albuquerque Center
Mon 09:42:30 PM 37.0344 -103.2181 253° West 503 579 43,000  Level Albuquerque Center
Mon 09:43:31 PM 36.9892 -103.4036 253° West 500 575 43,000  Level Albuquerque Center
Mon 09:44:33 PM 36.9481 -103.5650 252° West 504 580 43,000  Level Albuquerque Center
Mon 09:45:34 PM 36.9019 -103.7522 253° West 503 579 43,000  Level Albuquerque Center
Mon 09:46:35 PM 36.8611 -103.9119 252° West 503 579 43,000  Level Albuquerque Center
Mon 09:47:37 PM 36.8200 -104.0728 252° West 504 580 43,000  Level Albuquerque Center
Mon 09:48:38 PM 36.7728 -104.2564 252° West 499 574 43,000  Level Albuquerque Center
Mon 09:49:39 PM 36.7317 -104.4147 252° West 500 575 43,000  Level Albuquerque Center
Mon 09:50:41 PM 36.6906 -104.5722 252° West 499 574 43,000  Level Albuquerque Center
Mon 09:51:42 PM 36.6450 -104.7456 252° West 504 580 43,000  Level Albuquerque Center
Mon 09:52:43 PM 36.6025 -104.9097 252° West 500 575 43,000  Level Albuquerque Center
Mon 09:53:45 PM 36.5581 -105.0758 252° West 501 577 43,000  Level Albuquerque Center
Mon 09:54:46 PM 36.5111 -105.2556 252° West 499 574 43,000  Level Albuquerque Center
Mon 09:55:47 PM 36.4686 -105.4142 252° West 504 580 43,000  Level Albuquerque Center
Mon 09:56:49 PM 36.4228 -105.5783 251° West 507 583 43,000  Level Albuquerque Center
Mon 09:57:50 PM 36.3775 -105.7467 252° West 514 592 43,000  Level Albuquerque Center
Mon 09:58:51 PM 36.3317 -105.9136 251° West 514 592 43,000  Level Albuquerque Center
Mon 09:59:53 PM 36.2783 -106.1136 252° West 511 588 43,000  Level Albuquerque Center
Mon 10:00:54 PM 36.2342 -106.2653 250° West 508 585 43,000  Level Albuquerque Center
Mon 10:01:55 PM 36.1844 -106.4503 252° West 507 583 43,000  Level Albuquerque Center
Mon 10:02:57 PM 36.1397 -106.6061 250° West 509 586 43,000  Level Albuquerque Center
Mon 10:03:58 PM 36.0944 -106.7697 251° West 507 583 43,000  Level Albuquerque Center
Mon 10:04:59 PM 36.0489 -106.9311 251° West 503 579 43,000  Level Albuquerque Center
Mon 10:06:01 PM 36.0033 -107.0908 251° West 497 572 43,000  Level Albuquerque Center
Mon 10:07:02 PM 35.9472 -107.2817 250° West 500 575 43,000  Level Albuquerque Center
Mon 10:08:03 PM 35.9028 -107.4369 251° West 501 577 43,000  Level Albuquerque Center
Mon 10:09:05 PM 35.8586 -107.5894 250° West 497 572 43,000  Level Albuquerque Center
Mon 10:10:06 PM 35.8061 -107.7683 250° West 496 571 43,000  Level Albuquerque Center
Mon 10:11:07 PM 35.7614 -107.9214 250° West 496 571 43,000  Level Albuquerque Center
Mon 10:12:09 PM 35.7086 -108.1011 250° West 497 572 43,000  Level Albuquerque Center
Mon 10:13:10 PM 35.6631 -108.2547 250° West 497 572 43,000  Level Albuquerque Center
Mon 10:14:11 PM 35.6172 -108.4081 250° West 497 572 43,000  Level Albuquerque Center
Mon 10:15:13 PM 35.5631 -108.5864 250° West 497 572 43,000  Level Albuquerque Center
Mon 10:16:14 PM 35.5172 -108.7394 250° West 496 571 43,000  Level Albuquerque Center
Mon 10:17:15 PM 35.4756 -108.8914 251° West 491 565 43,000  Level Albuquerque Center
Mon 10:18:17 PM 35.4447 -109.0797 259° West 499 574 43,000  Level Albuquerque Center
Mon 10:19:18 PM 35.4075 -109.2378 254° West 500 575 43,000  Level Albuquerque Center
Mon 10:20:19 PM 35.3739 -109.3956 255° West 500 575 43,000  Level Albuquerque Center
Mon 10:21:21 PM 35.3311 -109.5731 254° West 490 564 43,000  Level Albuquerque Center
Mon 10:22:22 PM 35.2956 -109.7292 254° West 492 566 43,000  Level Albuquerque Center
Mon 10:23:24 PM 35.2564 -109.9133 255° West 499 574 43,000  Level Albuquerque Center
Mon 10:24:25 PM 35.2206 -110.0675 254° West 495 570 43,000  Level Albuquerque Center
Mon 10:25:26 PM 35.1842 -110.2183 254° West 489 563 43,000  Level Albuquerque Center
Mon 10:26:28 PM 35.1406 -110.3969 253° West 489 563 43,000  Level Albuquerque Center
Mon 10:27:29 PM 35.1031 -110.5506 253° West 491 565 43,000  Level Albuquerque Center
Mon 10:28:31 PM 35.0619 -110.7253 254° West 483 556 43,000  Level Albuquerque Center
Mon 10:29:32 PM 35.0228 -110.8803 253° West 484 557 43,000  Level Albuquerque Center
Mon 10:30:33 PM 34.9856 -111.0392 254° West 487 560 43,000  Level Albuquerque Center
Mon 10:31:35 PM 34.9486 -111.2042 255° West 502 578 43,000  Level Albuquerque Center
Mon 10:32:36 PM 34.9106 -111.3617 254° West 492 566 43,000  Level Albuquerque Center
Mon 10:33:37 PM 34.8714 -111.5181 253° West 488 562 43,000  Level Albuquerque Center
Mon 10:34:39 PM 34.8322 -111.6775 253° West 492 566 43,000  Level Albuquerque Center
Mon 10:35:40 PM 34.7875 -111.8594 253° West 495 570 43,000  Level Albuquerque Center
Mon 10:36:42 PM 34.7458 -112.0261 253° West 493 567 43,000  Level Albuquerque Center
Mon 10:37:43 PM 34.7064 -112.1833 253° West 490 564 43,000  Level Albuquerque Center
Mon 10:38:44 PM 34.6675 -112.3389 253° West 488 562 43,000  Level Albuquerque Center
Mon 10:39:46 PM 34.6289 -112.4883 253° West 487 560 43,000  Level Albuquerque Center
Mon 10:40:47 PM 34.5894 -112.6453 253° West 487 560 43,000  Level Albuquerque Center
Mon 10:41:49 PM 34.5486 -112.8019 252° West 488 562 43,000  Level Albuquerque Center
Mon 10:42:50 PM 34.5081 -112.9600 253° West 490 564 43,000  Level Albuquerque Center
Mon 10:43:51 PM 34.4592 -113.1481 253° West 489 563 43,000  Level Albuquerque Center
Mon 10:44:53 PM 34.4178 -113.3058 252° West 485 558 43,000  Level Albuquerque Center
Mon 10:45:54 PM 34.3772 -113.4600 252° West 482 555 43,000  Level Albuquerque Center
Mon 10:46:55 PM 34.3364 -113.6147 252° West 482 555 43,000  Level Albuquerque Center
Mon 10:47:57 PM 34.2944 -113.7686 252° West 483 556 43,000  Level Albuquerque Center
Mon 10:48:58 PM 34.2539 -113.9211 252° West 481 554 43,000  Level Albuquerque Center
Mon 10:49:59 PM 34.2131 -114.0731 252° West 479 551 43,000  Level Albuquerque Center
Mon 10:51:01 PM 34.1725 -114.2264 252° West 478 550 43,000 -146 Level Albuquerque Center
Mon 10:52:02 PM 34.1289 -114.3844 252° West 485 558 42,700 -738 Descending Albuquerque Center
Mon 10:53:03 PM 34.0811 -114.5606 252° West 484 557 41,500 -1,392 Descending Albuquerque Center
Mon 10:54:07 PM 34.0378 -114.7217 252° West 482 555 39,800 -1,883 Descending Los Angeles Center
Mon 10:55:20 PM 33.9936 -114.8764 251° West 489 563 37,200 -2,578 Descending Los Angeles Center
Mon 10:56:22 PM 33.9419 -115.0658 252° West 496 571 34,000 -2,758 Descending Los Angeles Center
Mon 10:57:24 PM 33.8978 -115.2244 251° West 502 578 31,500 -2,516 Descending Los Angeles Center
Mon 10:58:26 PM 33.8522 -115.3808 251° West 499 574 28,800 -2,488 Descending Los Angeles Center
Mon 10:59:27 PM 33.8100 -115.5292 251° West 474 545 26,400 -2,634 Descending Los Angeles Center
Mon 11:00:29 PM 33.7617 -115.7017 251° West 459 528 23,400 -2,585 Descending Los Angeles Center
Mon 11:01:30 PM 33.7217 -115.8417 251° West 449 517 21,100 -2,195 Descending Los Angeles Center
Mon 11:02:32 PM 33.6831 -115.9756 251° West 431 496 18,900 -2,244 Descending Los Angeles Center
Mon 11:03:33 PM 33.6439 -116.1061 250° West 420 483 16,500 -1,756 Descending Los Angeles Center
Mon 11:04:35 PM 33.5939 -116.2114 240° Southwest 375 432 15,300 -1,065 Descending Los Angeles Center
Mon 11:05:37 PM 33.5353 -116.2925 229° Southwest 333 383 14,300 -976 Descending Los Angeles Center
Mon 11:06:38 PM 33.4778 -116.3756 230° Southwest 326 375 13,300 -1,073 Descending Los Angeles Center
Mon 11:07:40 PM 33.4122 -116.4697 230° Southwest 312 359 12,100 -732 Descending Los Angeles Center
Mon 11:08:41 PM 33.3594 -116.5442 230° Southwest 301 346 11,800 -293 Descending Los Angeles Center
Mon 11:09:43 PM 33.3117 -116.6136 231° Southwest 280 322 11,500 -726 Descending Los Angeles Center
Mon 11:10:45 PM 33.2778 -116.6942 243° Southwest 274 315 10,300 -1,268 Descending Los Angeles Center
Mon 11:11:46 PM 33.2461 -116.7728 244° Southwest 267 307 8,900 -1,220 Descending Los Angeles Center
Mon 11:12:48 PM 33.2147 -116.8483 244° Southwest 260 299 7,800 -971 Descending Los Angeles Center
Mon 11:13:31 PM 33.1833 -116.9167 241° Southwest 231 266 7,200 -1,156 Descending Southern California TRACON
Mon 11:14:37 PM 33.1667 -116.9833 253° West 225 259 5,700 -1,500 Descending Southern California TRACON
Mon 11:15:31 PM 33.1667 -117.0667 270° West 230 265 4,200 -1,526 Descending Southern California TRACON
Mon 11:16:31 PM 33.1500 -117.1333 253° West 211 243 2,800 -1,200 Descending Southern California TRACON
Mon 11:17:31 PM 33.1500 -117.1833 270° West 167 192 1,800 -850 Descending Southern California TRACON
Mon 11:18:31 PM 33.1333 -117.2333 248° West 118 136 1,100 -700 Descending Southern California TRACON
Mon 11:19:31 PM 33.1333 -117.2667 270° West 121 139 400 -700 Descending Southern California TRACON
Mon 11:22:00 PM 33.1167 -117.2667 257° West  Level FlightAware Approximate

Login

Don't have an account? Register now (free) for customized features, flight alerts, and more!